sensor_id;sensor_type;location;lat;lon;timestamp;P1;durP1;ratioP1;P2;durP2;ratioP2
19808;SDS011;48538;32.784;-96.802;2023-04-01T00:02:11;20.20;;;3.60;;
19808;SDS011;48538;32.784;-96.802;2023-04-01T00:04:37;23.58;;;4.10;;
19808;SDS011;48538;32.784;-96.802;2023-04-01T00:07:04;8.93;;;2.33;;
19808;SDS011;48538;32.784;-96.802;2023-04-01T00:09:30;16.95;;;3.10;;
19808;SDS011;48538;32.784;-96.802;2023-04-01T00:11:56;16.67;;;3.75;;
19808;SDS011;48538;32.784;-96.802;2023-04-01T00:14:23;16.80;;;2.55;;
19808;SDS011;48538;32.784;-96.802;2023-04-01T00:16:49;18.88;;;3.00;;
19808;SDS011;48538;32.784;-96.802;2023-04-01T00:19:15;30.95;;;4.97;;
19808;SDS011;48538;32.784;-96.802;2023-04-01T00:21:42;22.20;;;3.17;;
19808;SDS011;48538;32.784;-96.802;2023-04-01T00:24:08;22.38;;;3.45;;
19808;SDS011;48538;32.784;-96.802;2023-04-01T00:26:34;19.13;;;3.22;;
19808;SDS011;48538;32.784;-96.802;2023-04-01T00:29:01;23.20;;;2.97;;
19808;SDS011;48538;32.784;-96.802;2023-04-01T00:31:27;31.55;;;3.92;;
19808;SDS011;48538;32.784;-96.802;2023-04-01T00:33:55;15.70;;;3.97;;
19808;SDS011;48538;32.784;-96.802;2023-04-01T00:36:21;23.00;;;4.03;;
19808;SDS011;48538;32.784;-96.802;2023-04-01T00:38:48;21.92;;;3.30;;
19808;SDS011;48538;32.784;-96.802;2023-04-01T00:41:16;21.80;;;3.55;;
19808;SDS011;48538;32.784;-96.802;2023-04-01T00:43:44;25.38;;;3.92;;
19808;SDS011;48538;32.784;-96.802;2023-04-01T00:46:12;28.90;;;4.63;;
19808;SDS011;48538;32.784;-96.802;2023-04-01T00:48:43;20.05;;;4.05;;
19808;SDS011;48538;32.784;-96.802;2023-04-01T00:51:17;26.45;;;4.03;;
19808;SDS011;48538;32.784;-96.802;2023-04-01T00:53:48;29.20;;;3.95;;
19808;SDS011;48538;32.784;-96.802;2023-04-01T00:56:30;74.18;;;21.73;;
19808;SDS011;48538;32.784;-96.802;2023-04-01T00:59:00;23.27;;;4.25;;
19808;SDS011;48538;32.784;-96.802;2023-04-01T01:01:30;23.60;;;4.22;;
19808;SDS011;48538;32.784;-96.802;2023-04-01T01:03:58;17.73;;;3.25;;
19808;SDS011;48538;32.784;-96.802;2023-04-01T01:06:38;23.38;;;3.97;;
19808;SDS011;48538;32.784;-96.802;2023-04-01T01:28:32;17.08;;;2.83;;
19808;SDS011;48538;32.784;-96.802;2023-04-01T01:31:21;33.22;;;4.20;;
19808;SDS011;48538;32.784;-96.802;2023-04-01T01:34:06;27.23;;;4.10;;
19808;SDS011;48538;32.784;-96.802;2023-04-01T01:36:42;26.45;;;3.65;;
19808;SDS011;48538;32.784;-96.802;2023-04-01T01:39:11;32.05;;;5.38;;
19808;SDS011;48538;32.784;-96.802;2023-04-01T01:41:39;25.13;;;3.97;;
19808;SDS011;48538;32.784;-96.802;2023-04-01T01:44:08;22.42;;;4.88;;
19808;SDS011;48538;32.784;-96.802;2023-04-01T01:46:38;23.45;;;4.90;;
19808;SDS011;48538;32.784;-96.802;2023-04-01T01:49:06;23.05;;;3.30;;
19808;SDS011;48538;32.784;-96.802;2023-04-01T01:51:35;29.90;;;4.65;;
19808;SDS011;48538;32.784;-96.802;2023-04-01T01:54:02;34.03;;;5.93;;
19808;SDS011;48538;32.784;-96.802;2023-04-01T01:56:28;24.20;;;5.20;;
19808;SDS011;48538;32.784;-96.802;2023-04-01T01:59:03;25.77;;;4.35;;
19808;SDS011;48538;32.784;-96.802;2023-04-01T02:01:35;35.25;;;4.82;;
19808;SDS011;48538;32.784;-96.802;2023-04-01T02:04:04;28.00;;;4.72;;
19808;SDS011;48538;32.784;-96.802;2023-04-01T02:06:32;23.70;;;4.32;;
19808;SDS011;48538;32.784;-96.802;2023-04-01T02:09:04;26.42;;;4.60;;
19808;SDS011;48538;32.784;-96.802;2023-04-01T02:17:22;25.10;;;6.18;;
19808;SDS011;48538;32.784;-96.802;2023-04-01T02:22:31;27.20;;;5.03;;
19808;SDS011;48538;32.784;-96.802;2023-04-01T02:25:04;29.48;;;4.35;;
19808;SDS011;48538;32.784;-96.802;2023-04-01T02:27:35;22.67;;;4.60;;
19808;SDS011;48538;32.784;-96.802;2023-04-01T02:30:03;25.95;;;3.72;;
19808;SDS011;48538;32.784;-96.802;2023-04-01T02:32:30;26.73;;;4.53;;
19808;SDS011;48538;32.784;-96.802;2023-04-01T02:34:58;31.00;;;5.47;;
19808;SDS011;48538;32.784;-96.802;2023-04-01T02:37:28;32.38;;;5.43;;
19808;SDS011;48538;32.784;-96.802;2023-04-01T02:39:58;22.00;;;4.57;;
19808;SDS011;48538;32.784;-96.802;2023-04-01T02:42:28;25.33;;;5.22;;
19808;SDS011;48538;32.784;-96.802;2023-04-01T02:44:54;19.75;;;3.85;;
19808;SDS011;48538;32.784;-96.802;2023-04-01T02:47:21;29.10;;;4.28;;
19808;SDS011;48538;32.784;-96.802;2023-04-01T02:49:47;30.15;;;4.72;;
19808;SDS011;48538;32.784;-96.802;2023-04-01T02:52:13;33.72;;;6.30;;
19808;SDS011;48538;32.784;-96.802;2023-04-01T02:54:40;32.88;;;6.05;;
19808;SDS011;48538;32.784;-96.802;2023-04-01T02:57:06;34.35;;;5.13;;
19808;SDS011;48538;32.784;-96.802;2023-04-01T02:59:32;22.13;;;4.20;;
19808;SDS011;48538;32.784;-96.802;2023-04-01T03:01:59;28.88;;;5.00;;
19808;SDS011;48538;32.784;-96.802;2023-04-01T03:04:25;26.95;;;4.60;;
19808;SDS011;48538;32.784;-96.802;2023-04-01T03:06:51;25.65;;;4.95;;
19808;SDS011;48538;32.784;-96.802;2023-04-01T03:09:17;23.77;;;4.25;;
19808;SDS011;48538;32.784;-96.802;2023-04-01T03:11:44;32.40;;;4.63;;
19808;SDS011;48538;32.784;-96.802;2023-04-01T03:14:10;20.27;;;3.65;;
19808;SDS011;48538;32.784;-96.802;2023-04-01T03:16:36;24.00;;;4.28;;
19808;SDS011;48538;32.784;-96.802;2023-04-01T03:19:03;22.52;;;6.07;;
19808;SDS011;48538;32.784;-96.802;2023-04-01T03:21:29;23.33;;;4.63;;
19808;SDS011;48538;32.784;-96.802;2023-04-01T03:23:55;23.23;;;4.28;;
19808;SDS011;48538;32.784;-96.802;2023-04-01T03:26:22;25.75;;;4.65;;
19808;SDS011;48538;32.784;-96.802;2023-04-01T03:28:48;20.52;;;4.25;;
19808;SDS011;48538;32.784;-96.802;2023-04-01T03:31:14;24.13;;;4.90;;
19808;SDS011;48538;32.784;-96.802;2023-04-01T03:33:41;35.70;;;4.72;;
19808;SDS011;48538;32.784;-96.802;2023-04-01T03:36:08;27.63;;;4.35;;
19808;SDS011;48538;32.784;-96.802;2023-04-01T03:38:36;27.52;;;5.03;;
19808;SDS011;48538;32.784;-96.802;2023-04-01T03:41:03;29.77;;;4.55;;
19808;SDS011;48538;32.784;-96.802;2023-04-01T03:43:30;30.73;;;5.57;;
19808;SDS011;48538;32.784;-96.802;2023-04-01T03:45:56;23.67;;;3.85;;
19808;SDS011;48538;32.784;-96.802;2023-04-01T03:48:23;25.67;;;4.00;;
19808;SDS011;48538;32.784;-96.802;2023-04-01T03:50:50;13.50;;;3.08;;
19808;SDS011;48538;32.784;-96.802;2023-04-01T03:53:17;15.35;;;4.00;;
19808;SDS011;48538;32.784;-96.802;2023-04-01T03:55:43;29.50;;;4.47;;
19808;SDS011;48538;32.784;-96.802;2023-04-01T03:58:09;29.63;;;5.65;;
19808;SDS011;48538;32.784;-96.802;2023-04-01T04:00:36;17.95;;;3.92;;
19808;SDS011;48538;32.784;-96.802;2023-04-01T04:03:02;23.40;;;5.32;;
19808;SDS011;48538;32.784;-96.802;2023-04-01T04:05:28;30.60;;;4.25;;
19808;SDS011;48538;32.784;-96.802;2023-04-01T04:07:55;14.65;;;3.42;;
19808;SDS011;48538;32.784;-96.802;2023-04-01T04:10:21;20.45;;;3.83;;
19808;SDS011;48538;32.784;-96.802;2023-04-01T04:12:48;28.55;;;6.95;;
19808;SDS011;48538;32.784;-96.802;2023-04-01T04:15:15;24.17;;;3.97;;
19808;SDS011;48538;32.784;-96.802;2023-04-01T04:17:41;23.75;;;3.67;;
19808;SDS011;48538;32.784;-96.802;2023-04-01T04:20:09;49.28;;;6.03;;
19808;SDS011;48538;32.784;-96.802;2023-04-01T04:22:35;21.88;;;4.05;;
19808;SDS011;48538;32.784;-96.802;2023-04-01T04:25:01;22.83;;;3.92;;
19808;SDS011;48538;32.784;-96.802;2023-04-01T04:27:28;22.73;;;3.53;;
19808;SDS011;48538;32.784;-96.802;2023-04-01T04:29:55;17.88;;;3.28;;
19808;SDS011;48538;32.784;-96.802;2023-04-01T04:32:21;24.95;;;3.83;;
19808;SDS011;48538;32.784;-96.802;2023-04-01T04:34:47;20.35;;;3.20;;
19808;SDS011;48538;32.784;-96.802;2023-04-01T04:37:14;28.58;;;4.65;;
19808;SDS011;48538;32.784;-96.802;2023-04-01T04:39:40;26.08;;;3.58;;
19808;SDS011;48538;32.784;-96.802;2023-04-01T04:42:06;23.08;;;3.67;;
19808;SDS011;48538;32.784;-96.802;2023-04-01T04:44:33;22.80;;;3.38;;
19808;SDS011;48538;32.784;-96.802;2023-04-01T04:46:59;14.75;;;3.05;;
19808;SDS011;48538;32.784;-96.802;2023-04-01T04:49:26;20.13;;;4.22;;
19808;SDS011;48538;32.784;-96.802;2023-04-01T04:51:52;19.38;;;3.35;;
19808;SDS011;48538;32.784;-96.802;2023-04-01T04:54:18;19.73;;;3.78;;
19808;SDS011;48538;32.784;-96.802;2023-04-01T04:56:45;31.67;;;6.75;;
19808;SDS011;48538;32.784;-96.802;2023-04-01T04:59:11;20.55;;;4.05;;
19808;SDS011;48538;32.784;-96.802;2023-04-01T05:01:38;19.90;;;3.83;;
19808;SDS011;48538;32.784;-96.802;2023-04-01T05:04:04;20.48;;;3.78;;
19808;SDS011;48538;32.784;-96.802;2023-04-01T05:06:30;20.13;;;4.05;;
19808;SDS011;48538;32.784;-96.802;2023-04-01T05:08:57;23.20;;;3.47;;
19808;SDS011;48538;32.784;-96.802;2023-04-01T05:11:23;16.63;;;3.72;;
19808;SDS011;48538;32.784;-96.802;2023-04-01T05:13:51;18.58;;;4.60;;
19808;SDS011;48538;32.784;-96.802;2023-04-01T05:16:18;16.08;;;3.47;;
19808;SDS011;48538;32.784;-96.802;2023-04-01T05:18:45;20.27;;;4.07;;
19808;SDS011;48538;32.784;-96.802;2023-04-01T05:21:13;23.08;;;3.55;;
19808;SDS011;48538;32.784;-96.802;2023-04-01T05:23:40;22.50;;;3.88;;
19808;SDS011;48538;32.784;-96.802;2023-04-01T05:26:08;19.90;;;3.10;;
19808;SDS011;48538;32.784;-96.802;2023-04-01T05:28:35;24.85;;;4.57;;
19808;SDS011;48538;32.784;-96.802;2023-04-01T05:31:03;21.33;;;3.90;;
19808;SDS011;48538;32.784;-96.802;2023-04-01T05:33:31;15.77;;;3.47;;
19808;SDS011;48538;32.784;-96.802;2023-04-01T05:36:08;21.27;;;4.05;;
19808;SDS011;48538;32.784;-96.802;2023-04-01T05:38:39;9.95;;;3.10;;
19808;SDS011;48538;32.784;-96.802;2023-04-01T05:41:07;17.10;;;3.25;;
19808;SDS011;48538;32.784;-96.802;2023-04-01T05:43:36;31.33;;;3.72;;
19808;SDS011;48538;32.784;-96.802;2023-04-01T05:46:03;18.00;;;3.80;;
19808;SDS011;48538;32.784;-96.802;2023-04-01T05:48:30;19.17;;;4.35;;
19808;SDS011;48538;32.784;-96.802;2023-04-01T05:50:57;17.52;;;4.43;;
19808;SDS011;48538;32.784;-96.802;2023-04-01T05:53:24;26.35;;;5.07;;
19808;SDS011;48538;32.784;-96.802;2023-04-01T05:55:50;15.55;;;3.30;;
19808;SDS011;48538;32.784;-96.802;2023-04-01T05:58:16;17.67;;;3.95;;
19808;SDS011;48538;32.784;-96.802;2023-04-01T06:00:43;21.15;;;3.10;;
19808;SDS011;48538;32.784;-96.802;2023-04-01T06:03:09;27.38;;;4.85;;
19808;SDS011;48538;32.784;-96.802;2023-04-01T06:05:42;19.45;;;3.40;;
19808;SDS011;48538;32.784;-96.802;2023-04-01T06:08:13;21.17;;;4.13;;
19808;SDS011;48538;32.784;-96.802;2023-04-01T06:10:49;17.13;;;4.22;;
19808;SDS011;48538;32.784;-96.802;2023-04-01T06:16:15;26.02;;;3.83;;
19808;SDS011;48538;32.784;-96.802;2023-04-01T06:18:59;21.20;;;3.80;;
19808;SDS011;48538;32.784;-96.802;2023-04-01T06:21:56;27.98;;;3.75;;
19808;SDS011;48538;32.784;-96.802;2023-04-01T06:31:11;15.52;;;3.38;;
19808;SDS011;48538;32.784;-96.802;2023-04-01T06:39:37;13.93;;;4.30;;
19808;SDS011;48538;32.784;-96.802;2023-04-01T06:43:20;23.10;;;4.68;;
19808;SDS011;48538;32.784;-96.802;2023-04-01T06:45:55;21.60;;;4.65;;
19808;SDS011;48538;32.784;-96.802;2023-04-01T06:54:38;22.75;;;3.78;;
19808;SDS011;48538;32.784;-96.802;2023-04-01T06:59:51;17.75;;;3.85;;
19808;SDS011;48538;32.784;-96.802;2023-04-01T07:02:45;15.63;;;3.95;;
19808;SDS011;48538;32.784;-96.802;2023-04-01T07:05:18;17.52;;;3.53;;
19808;SDS011;48538;32.784;-96.802;2023-04-01T07:07:47;21.10;;;3.97;;
19808;SDS011;48538;32.784;-96.802;2023-04-01T07:13:18;15.52;;;4.53;;
19808;SDS011;48538;32.784;-96.802;2023-04-01T07:21:45;22.63;;;5.10;;
19808;SDS011;48538;32.784;-96.802;2023-04-01T07:24:17;15.90;;;3.67;;
19808;SDS011;48538;32.784;-96.802;2023-04-01T07:26:52;21.08;;;3.67;;
19808;SDS011;48538;32.784;-96.802;2023-04-01T07:29:22;26.15;;;4.78;;
19808;SDS011;48538;32.784;-96.802;2023-04-01T07:34:41;19.92;;;3.60;;
19808;SDS011;48538;32.784;-96.802;2023-04-01T07:48:22;23.35;;;3.92;;
19808;SDS011;48538;32.784;-96.802;2023-04-01T07:56:10;31.13;;;4.57;;
19808;SDS011;48538;32.784;-96.802;2023-04-01T08:01:34;14.38;;;3.67;;
19808;SDS011;48538;32.784;-96.802;2023-04-01T08:06:45;15.32;;;2.78;;
19808;SDS011;48538;32.784;-96.802;2023-04-01T08:12:17;12.82;;;2.58;;
19808;SDS011;48538;32.784;-96.802;2023-04-01T08:22:49;15.82;;;2.75;;
19808;SDS011;48538;32.784;-96.802;2023-04-01T08:25:21;10.18;;;2.55;;
19808;SDS011;48538;32.784;-96.802;2023-04-01T08:27:53;12.00;;;2.33;;
19808;SDS011;48538;32.784;-96.802;2023-04-01T08:30:38;14.80;;;2.78;;
19808;SDS011;48538;32.784;-96.802;2023-04-01T08:33:18;10.95;;;2.83;;
19808;SDS011;48538;32.784;-96.802;2023-04-01T08:35:55;13.88;;;2.65;;
19808;SDS011;48538;32.784;-96.802;2023-04-01T08:47:27;20.35;;;2.63;;
19808;SDS011;48538;32.784;-96.802;2023-04-01T09:01:15;14.80;;;2.25;;
19808;SDS011;48538;32.784;-96.802;2023-04-01T09:04:24;12.15;;;2.10;;
19808;SDS011;48538;32.784;-96.802;2023-04-01T09:07:04;10.80;;;2.22;;
19808;SDS011;48538;32.784;-96.802;2023-04-01T09:14:54;12.05;;;2.50;;
19808;SDS011;48538;32.784;-96.802;2023-04-01T09:21:02;11.40;;;2.50;;
19808;SDS011;48538;32.784;-96.802;2023-04-01T09:27:05;9.68;;;2.75;;
19808;SDS011;48538;32.784;-96.802;2023-04-01T09:29:42;14.35;;;2.65;;
19808;SDS011;48538;32.784;-96.802;2023-04-01T09:44:01;13.68;;;2.70;;
19808;SDS011;48538;32.784;-96.802;2023-04-01T09:46:36;9.57;;;2.10;;
19808;SDS011;48538;32.784;-96.802;2023-04-01T09:49:26;12.65;;;3.00;;
19808;SDS011;48538;32.784;-96.802;2023-04-01T09:55:05;8.40;;;2.53;;
19808;SDS011;48538;32.784;-96.802;2023-04-01T10:13:49;18.70;;;3.03;;
19808;SDS011;48538;32.784;-96.802;2023-04-01T10:30:29;11.57;;;2.40;;
19808;SDS011;48538;32.784;-96.802;2023-04-01T10:36:09;13.13;;;2.70;;
19808;SDS011;48538;32.784;-96.802;2023-04-01T10:50:42;7.53;;;2.00;;
19808;SDS011;48538;32.784;-96.802;2023-04-01T10:53:42;9.30;;;1.75;;
19808;SDS011;48538;32.784;-96.802;2023-04-01T10:56:36;12.60;;;3.15;;
19808;SDS011;48538;32.784;-96.802;2023-04-01T10:59:15;13.43;;;2.42;;
19808;SDS011;48538;32.784;-96.802;2023-04-01T11:05:17;7.22;;;2.15;;
19808;SDS011;48538;32.784;-96.802;2023-04-01T11:16:57;7.95;;;2.00;;
19808;SDS011;48538;32.784;-96.802;2023-04-01T11:28:33;14.73;;;2.70;;
19808;SDS011;48538;32.784;-96.802;2023-04-01T11:41:40;11.57;;;2.30;;
19808;SDS011;48538;32.784;-96.802;2023-04-01T11:44:17;13.47;;;2.27;;
19808;SDS011;48538;32.784;-96.802;2023-04-01T11:49:39;6.40;;;1.60;;
19808;SDS011;48538;32.784;-96.802;2023-04-01T12:03:46;7.57;;;2.00;;
19808;SDS011;48538;32.784;-96.802;2023-04-01T12:09:16;8.03;;;2.10;;
19808;SDS011;48538;32.784;-96.802;2023-04-01T12:25:27;4.27;;;2.07;;
19808;SDS011;48538;32.784;-96.802;2023-04-01T12:30:53;11.37;;;2.03;;
19808;SDS011;48538;32.784;-96.802;2023-04-01T12:39:22;8.43;;;2.10;;
19808;SDS011;48538;32.784;-96.802;2023-04-01T12:42:15;9.17;;;2.53;;
19808;SDS011;48538;32.784;-96.802;2023-04-01T12:56:47;4.97;;;2.37;;
19808;SDS011;48538;32.784;-96.802;2023-04-01T13:00:03;3.10;;;1.70;;
19808;SDS011;48538;32.784;-96.802;2023-04-01T13:02:26;6.27;;;1.50;;
19808;SDS011;48538;32.784;-96.802;2023-04-01T13:05:18;17.33;;;2.43;;
19808;SDS011;48538;32.784;-96.802;2023-04-01T13:07:52;6.10;;;1.60;;
19808;SDS011;48538;32.784;-96.802;2023-04-01T13:13:24;5.37;;;1.70;;
19808;SDS011;48538;32.784;-96.802;2023-04-01T13:16:31;7.73;;;2.07;;
19808;SDS011;48538;32.784;-96.802;2023-04-01T13:19:48;5.77;;;1.87;;
19808;SDS011;48538;32.784;-96.802;2023-04-01T13:25:44;6.80;;;1.50;;
19808;SDS011;48538;32.784;-96.802;2023-04-01T13:28:30;9.40;;;2.00;;
19808;SDS011;48538;32.784;-96.802;2023-04-01T13:40:02;6.67;;;1.60;;
19808;SDS011;48538;32.784;-96.802;2023-04-01T13:42:57;6.37;;;1.60;;
19808;SDS011;48538;32.784;-96.802;2023-04-01T13:45:35;6.00;;;1.70;;
19808;SDS011;48538;32.784;-96.802;2023-04-01T13:51:21;5.87;;;1.70;;
19808;SDS011;48538;32.784;-96.802;2023-04-01T13:54:03;13.40;;;1.97;;
19808;SDS011;48538;32.784;-96.802;2023-04-01T14:04:48;6.57;;;2.37;;
19808;SDS011;48538;32.784;-96.802;2023-04-01T14:22:05;15.90;;;1.77;;
19808;SDS011;48538;32.784;-96.802;2023-04-01T14:24:52;5.03;;;1.80;;
19808;SDS011;48538;32.784;-96.802;2023-04-01T14:33:18;4.77;;;1.67;;
19808;SDS011;48538;32.784;-96.802;2023-04-01T14:41:45;6.90;;;2.00;;
19808;SDS011;48538;32.784;-96.802;2023-04-01T14:49:50;3.55;;;1.50;;
19808;SDS011;48538;32.784;-96.802;2023-04-01T14:54:47;3.10;;;1.40;;
19808;SDS011;48538;32.784;-96.802;2023-04-01T14:57:20;4.35;;;1.30;;
19808;SDS011;48538;32.784;-96.802;2023-04-01T15:00:15;3.30;;;1.48;;
19808;SDS011;48538;32.784;-96.802;2023-04-01T15:02:53;8.00;;;1.50;;
19808;SDS011;48538;32.784;-96.802;2023-04-01T15:05:47;6.43;;;1.40;;
19808;SDS011;48538;32.784;-96.802;2023-04-01T15:08:33;11.20;;;2.50;;
19808;SDS011;48538;32.784;-96.802;2023-04-01T15:19:19;2.80;;;1.37;;
19808;SDS011;48538;32.784;-96.802;2023-04-01T15:33:31;3.85;;;1.70;;
19808;SDS011;48538;32.784;-96.802;2023-04-01T15:36:19;5.75;;;2.13;;
19808;SDS011;48538;32.784;-96.802;2023-04-01T15:41:48;8.30;;;1.98;;
19808;SDS011;48538;32.784;-96.802;2023-04-01T15:55:27;3.28;;;1.30;;
19808;SDS011;48538;32.784;-96.802;2023-04-01T16:04:06;8.32;;;1.52;;
19808;SDS011;48538;32.784;-96.802;2023-04-01T16:09:22;5.07;;;1.90;;
19808;SDS011;48538;32.784;-96.802;2023-04-01T16:22:55;5.32;;;1.80;;
19808;SDS011;48538;32.784;-96.802;2023-04-01T16:25:44;1.85;;;1.20;;
19808;SDS011;48538;32.784;-96.802;2023-04-01T16:28:54;2.55;;;1.40;;
19808;SDS011;48538;32.784;-96.802;2023-04-01T16:31:27;2.03;;;1.50;;
19808;SDS011;48538;32.784;-96.802;2023-04-01T16:34:07;6.57;;;1.50;;
19808;SDS011;48538;32.784;-96.802;2023-04-01T16:42:39;4.38;;;1.58;;
19808;SDS011;48538;32.784;-96.802;2023-04-01T16:45:16;3.05;;;1.33;;
19808;SDS011;48538;32.784;-96.802;2023-04-01T16:47:55;4.75;;;1.58;;
19808;SDS011;48538;32.784;-96.802;2023-04-01T16:50:48;7.15;;;1.23;;
19808;SDS011;48538;32.784;-96.802;2023-04-01T16:53:17;102.03;;;39.22;;
19808;SDS011;48538;32.784;-96.802;2023-04-01T16:56:24;19.67;;;6.95;;
19808;SDS011;48538;32.784;-96.802;2023-04-01T16:58:55;19.95;;;7.60;;
19808;SDS011;48538;32.784;-96.802;2023-04-01T17:04:08;6.30;;;1.40;;
19808;SDS011;48538;32.784;-96.802;2023-04-01T17:06:49;2.17;;;1.40;;
19808;SDS011;48538;32.784;-96.802;2023-04-01T17:12:28;5.07;;;1.40;;
19808;SDS011;48538;32.784;-96.802;2023-04-01T17:15:04;5.30;;;1.48;;
19808;SDS011;48538;32.784;-96.802;2023-04-01T17:20:56;2.15;;;1.33;;
19808;SDS011;48538;32.784;-96.802;2023-04-01T17:26:44;6.50;;;1.88;;
19808;SDS011;48538;32.784;-96.802;2023-04-01T17:29:24;2.47;;;1.50;;
19808;SDS011;48538;32.784;-96.802;2023-04-01T17:43:52;3.42;;;1.25;;
19808;SDS011;48538;32.784;-96.802;2023-04-01T17:52:00;3.60;;;1.40;;
19808;SDS011;48538;32.784;-96.802;2023-04-01T17:54:41;3.47;;;1.42;;
19808;SDS011;48538;32.784;-96.802;2023-04-01T17:57:31;3.78;;;1.20;;
19808;SDS011;48538;32.784;-96.802;2023-04-01T18:00:19;3.20;;;1.60;;
19808;SDS011;48538;32.784;-96.802;2023-04-01T18:03:06;3.17;;;1.15;;
19808;SDS011;48538;32.784;-96.802;2023-04-01T18:06:14;1.88;;;1.20;;
19808;SDS011;48538;32.784;-96.802;2023-04-01T18:17:42;4.72;;;1.35;;
19808;SDS011;48538;32.784;-96.802;2023-04-01T18:23:14;2.17;;;1.20;;
19808;SDS011;48538;32.784;-96.802;2023-04-01T18:26:04;3.05;;;1.20;;
19808;SDS011;48538;32.784;-96.802;2023-04-01T18:28:44;4.68;;;1.40;;
19808;SDS011;48538;32.784;-96.802;2023-04-01T18:31:36;6.45;;;1.67;;
19808;SDS011;48538;32.784;-96.802;2023-04-01T18:34:10;4.68;;;1.50;;
19808;SDS011;48538;32.784;-96.802;2023-04-01T18:36:59;4.15;;;1.42;;
19808;SDS011;48538;32.784;-96.802;2023-04-01T18:39:47;4.63;;;1.40;;
19808;SDS011;48538;32.784;-96.802;2023-04-01T18:42:33;2.63;;;1.63;;
19808;SDS011;48538;32.784;-96.802;2023-04-01T18:48:01;2.15;;;1.00;;
19808;SDS011;48538;32.784;-96.802;2023-04-01T18:50:41;4.10;;;1.25;;
19808;SDS011;48538;32.784;-96.802;2023-04-01T18:53:40;3.47;;;1.10;;
19808;SDS011;48538;32.784;-96.802;2023-04-01T18:56:13;4.78;;;1.17;;
19808;SDS011;48538;32.784;-96.802;2023-04-01T19:01:50;2.55;;;1.30;;
19808;SDS011;48538;32.784;-96.802;2023-04-01T19:04:52;2.05;;;1.30;;
19808;SDS011;48538;32.784;-96.802;2023-04-01T19:07:40;2.28;;;1.40;;
19808;SDS011;48538;32.784;-96.802;2023-04-01T19:12:47;5.80;;;1.38;;
19808;SDS011;48538;32.784;-96.802;2023-04-01T19:15:29;4.80;;;2.20;;
19808;SDS011;48538;32.784;-96.802;2023-04-01T19:18:17;1.45;;;1.10;;
19808;SDS011;48538;32.784;-96.802;2023-04-01T19:20:59;3.83;;;1.20;;
19808;SDS011;48538;32.784;-96.802;2023-04-01T19:45:34;4.35;;;1.50;;
19808;SDS011;48538;32.784;-96.802;2023-04-01T19:48:09;6.47;;;1.13;;
19808;SDS011;48538;32.784;-96.802;2023-04-01T19:53:19;6.63;;;1.70;;
19808;SDS011;48538;32.784;-96.802;2023-04-01T20:00:59;9.20;;;1.65;;
19808;SDS011;48538;32.784;-96.802;2023-04-01T20:06:31;3.25;;;1.15;;
19808;SDS011;48538;32.784;-96.802;2023-04-01T20:09:34;2.53;;;1.20;;
19808;SDS011;48538;32.784;-96.802;2023-04-01T20:15:22;2.00;;;1.10;;
19808;SDS011;48538;32.784;-96.802;2023-04-01T20:18:11;5.65;;;1.52;;
19808;SDS011;48538;32.784;-96.802;2023-04-01T20:20:38;4.93;;;1.58;;
19808;SDS011;48538;32.784;-96.802;2023-04-01T20:26:34;3.33;;;1.15;;
19808;SDS011;48538;32.784;-96.802;2023-04-01T20:32:04;3.97;;;1.77;;
19808;SDS011;48538;32.784;-96.802;2023-04-01T20:35:08;2.97;;;1.40;;
19808;SDS011;48538;32.784;-96.802;2023-04-01T20:40:33;3.80;;;1.27;;
19808;SDS011;48538;32.784;-96.802;2023-04-01T20:46:00;3.10;;;1.50;;
19808;SDS011;48538;32.784;-96.802;2023-04-01T20:49:05;5.63;;;1.17;;
19808;SDS011;48538;32.784;-96.802;2023-04-01T20:57:31;2.08;;;1.05;;
19808;SDS011;48538;32.784;-96.802;2023-04-01T21:00:07;4.07;;;1.42;;
19808;SDS011;48538;32.784;-96.802;2023-04-01T21:05:58;5.53;;;1.70;;
19808;SDS011;48538;32.784;-96.802;2023-04-01T21:11:20;2.38;;;0.80;;
19808;SDS011;48538;32.784;-96.802;2023-04-01T21:17:22;6.38;;;1.30;;
19808;SDS011;48538;32.784;-96.802;2023-04-01T21:42:00;4.50;;;1.00;;
19808;SDS011;48538;32.784;-96.802;2023-04-01T21:45:07;2.85;;;1.33;;
19808;SDS011;48538;32.784;-96.802;2023-04-01T21:55:31;4.90;;;1.20;;
19808;SDS011;48538;32.784;-96.802;2023-04-01T22:01:00;4.28;;;1.23;;
19808;SDS011;48538;32.784;-96.802;2023-04-01T22:06:31;4.55;;;0.90;;
19808;SDS011;48538;32.784;-96.802;2023-04-01T22:14:57;6.28;;;0.95;;
19808;SDS011;48538;32.784;-96.802;2023-04-01T22:25:59;5.13;;;1.58;;
19808;SDS011;48538;32.784;-96.802;2023-04-01T22:28:46;1.55;;;1.00;;
19808;SDS011;48538;32.784;-96.802;2023-04-01T22:31:18;4.15;;;1.10;;
19808;SDS011;48538;32.784;-96.802;2023-04-01T22:42:19;3.75;;;1.13;;
19808;SDS011;48538;32.784;-96.802;2023-04-01T22:45:00;1.00;;;0.90;;
19808;SDS011;48538;32.784;-96.802;2023-04-01T22:47:54;1.48;;;1.10;;
19808;SDS011;48538;32.784;-96.802;2023-04-01T22:56:31;1.30;;;0.98;;
19808;SDS011;48538;32.784;-96.802;2023-04-01T23:01:56;1.17;;;1.00;;
19808;SDS011;48538;32.784;-96.802;2023-04-01T23:04:32;2.10;;;0.95;;
19808;SDS011;48538;32.784;-96.802;2023-04-01T23:07:04;1.95;;;0.80;;
19808;SDS011;48538;32.784;-96.802;2023-04-01T23:09:45;4.32;;;1.13;;
19808;SDS011;48538;32.784;-96.802;2023-04-01T23:12:14;2.15;;;0.90;;
19808;SDS011;48538;32.784;-96.802;2023-04-01T23:14:47;2.25;;;1.10;;
19808;SDS011;48538;32.784;-96.802;2023-04-01T23:28:40;2.53;;;1.10;;
19808;SDS011;48538;32.784;-96.802;2023-04-01T23:31:52;2.88;;;0.93;;
19808;SDS011;48538;32.784;-96.802;2023-04-01T23:36:52;4.20;;;1.00;;
19808;SDS011;48538;32.784;-96.802;2023-04-01T23:41:52;1.15;;;1.05;;
19808;SDS011;48538;32.784;-96.802;2023-04-01T23:44:21;3.80;;;1.10;;
19808;SDS011;48538;32.784;-96.802;2023-04-01T23:46:51;6.47;;;1.33;;
19808;SDS011;48538;32.784;-96.802;2023-04-01T23:49:20;1.92;;;1.00;;
